sensor_id;sensor_type;location;lat;lon;timestamp;P1;durP1;ratioP1;P2;durP2;ratioP2
14768;SDS011;7476;49.404;11.152;2022-10-16T00:01:13;3.77;;;1.90;;
14768;SDS011;7476;49.404;11.152;2022-10-16T00:03:42;2.20;;;2.00;;
14768;SDS011;7476;49.404;11.152;2022-10-16T00:06:10;2.47;;;1.80;;
14768;SDS011;7476;49.404;11.152;2022-10-16T00:08:38;3.63;;;1.90;;
14768;SDS011;7476;49.404;11.152;2022-10-16T00:11:07;3.00;;;1.83;;
14768;SDS011;7476;49.404;11.152;2022-10-16T00:13:36;2.37;;;1.87;;
14768;SDS011;7476;49.404;11.152;2022-10-16T00:16:05;3.10;;;1.90;;
14768;SDS011;7476;49.404;11.152;2022-10-16T00:18:32;3.30;;;2.27;;
14768;SDS011;7476;49.404;11.152;2022-10-16T00:21:04;3.97;;;2.00;;
14768;SDS011;7476;49.404;11.152;2022-10-16T00:23:32;4.17;;;2.00;;
14768;SDS011;7476;49.404;11.152;2022-10-16T00:26:01;3.27;;;1.80;;
14768;SDS011;7476;49.404;11.152;2022-10-16T00:28:31;2.80;;;1.90;;
14768;SDS011;7476;49.404;11.152;2022-10-16T00:30:58;3.60;;;1.97;;
14768;SDS011;7476;49.404;11.152;2022-10-16T00:33:28;4.10;;;1.93;;
14768;SDS011;7476;49.404;11.152;2022-10-16T00:35:57;3.90;;;1.80;;
14768;SDS011;7476;49.404;11.152;2022-10-16T00:38:23;2.50;;;1.90;;
14768;SDS011;7476;49.404;11.152;2022-10-16T00:40:50;3.50;;;1.80;;
14768;SDS011;7476;49.404;11.152;2022-10-16T00:46:13;3.30;;;1.90;;
14768;SDS011;7476;49.404;11.152;2022-10-16T00:48:42;3.33;;;1.87;;
14768;SDS011;7476;49.404;11.152;2022-10-16T00:51:14;2.70;;;1.93;;
14768;SDS011;7476;49.404;11.152;2022-10-16T00:53:42;2.53;;;2.00;;
14768;SDS011;7476;49.404;11.152;2022-10-16T00:56:10;3.27;;;2.00;;
14768;SDS011;7476;49.404;11.152;2022-10-16T00:58:37;3.40;;;1.87;;
14768;SDS011;7476;49.404;11.152;2022-10-16T01:01:03;3.80;;;2.20;;
14768;SDS011;7476;49.404;11.152;2022-10-16T01:03:33;4.73;;;2.17;;
14768;SDS011;7476;49.404;11.152;2022-10-16T01:06:05;3.90;;;2.30;;
14768;SDS011;7476;49.404;11.152;2022-10-16T01:08:46;4.90;;;2.30;;
14768;SDS011;7476;49.404;11.152;2022-10-16T01:11:22;4.77;;;2.37;;
14768;SDS011;7476;49.404;11.152;2022-10-16T01:13:57;2.73;;;2.13;;
14768;SDS011;7476;49.404;11.152;2022-10-16T01:16:29;3.80;;;2.30;;
14768;SDS011;7476;49.404;11.152;2022-10-16T01:19:04;6.03;;;2.10;;
14768;SDS011;7476;49.404;11.152;2022-10-16T01:21:39;3.50;;;1.90;;
14768;SDS011;7476;49.404;11.152;2022-10-16T01:24:11;3.33;;;2.20;;
14768;SDS011;7476;49.404;11.152;2022-10-16T01:26:52;2.10;;;1.80;;
14768;SDS011;7476;49.404;11.152;2022-10-16T01:29:44;4.10;;;2.10;;
14768;SDS011;7476;49.404;11.152;2022-10-16T01:32:18;2.50;;;2.17;;
14768;SDS011;7476;49.404;11.152;2022-10-16T01:34:49;3.33;;;2.30;;
14768;SDS011;7476;49.404;11.152;2022-10-16T01:37:22;4.40;;;2.27;;
14768;SDS011;7476;49.404;11.152;2022-10-16T01:39:55;6.37;;;2.13;;
14768;SDS011;7476;49.404;11.152;2022-10-16T01:42:27;4.23;;;2.13;;
14768;SDS011;7476;49.404;11.152;2022-10-16T01:44:58;4.53;;;2.60;;
14768;SDS011;7476;49.404;11.152;2022-10-16T01:47:26;5.37;;;2.10;;
14768;SDS011;7476;49.404;11.152;2022-10-16T01:49:56;3.27;;;2.20;;
14768;SDS011;7476;49.404;11.152;2022-10-16T01:52:26;3.50;;;2.37;;
14768;SDS011;7476;49.404;11.152;2022-10-16T01:54:55;2.93;;;2.10;;
14768;SDS011;7476;49.404;11.152;2022-10-16T01:57:24;3.73;;;2.50;;
14768;SDS011;7476;49.404;11.152;2022-10-16T01:59:52;3.10;;;2.23;;
14768;SDS011;7476;49.404;11.152;2022-10-16T02:02:23;5.37;;;2.43;;
14768;SDS011;7476;49.404;11.152;2022-10-16T02:04:55;2.80;;;2.30;;
14768;SDS011;7476;49.404;11.152;2022-10-16T02:07:24;3.70;;;2.47;;
14768;SDS011;7476;49.404;11.152;2022-10-16T02:09:51;3.90;;;2.40;;
14768;SDS011;7476;49.404;11.152;2022-10-16T02:12:19;2.83;;;2.20;;
14768;SDS011;7476;49.404;11.152;2022-10-16T02:14:52;4.73;;;2.27;;
14768;SDS011;7476;49.404;11.152;2022-10-16T02:17:19;3.30;;;2.27;;
14768;SDS011;7476;49.404;11.152;2022-10-16T02:19:47;4.10;;;2.60;;
14768;SDS011;7476;49.404;11.152;2022-10-16T02:22:17;2.60;;;2.33;;
14768;SDS011;7476;49.404;11.152;2022-10-16T02:24:51;4.40;;;2.27;;
14768;SDS011;7476;49.404;11.152;2022-10-16T02:27:22;5.50;;;2.67;;
14768;SDS011;7476;49.404;11.152;2022-10-16T02:29:53;7.40;;;2.67;;
14768;SDS011;7476;49.404;11.152;2022-10-16T02:32:24;2.60;;;2.30;;
14768;SDS011;7476;49.404;11.152;2022-10-16T02:34:57;3.00;;;2.13;;
14768;SDS011;7476;49.404;11.152;2022-10-16T02:37:25;5.10;;;2.20;;
14768;SDS011;7476;49.404;11.152;2022-10-16T02:39:53;2.10;;;1.90;;
14768;SDS011;7476;49.404;11.152;2022-10-16T02:42:26;3.83;;;2.20;;
14768;SDS011;7476;49.404;11.152;2022-10-16T02:44:54;3.57;;;2.20;;
14768;SDS011;7476;49.404;11.152;2022-10-16T02:47:21;3.57;;;2.33;;
14768;SDS011;7476;49.404;11.152;2022-10-16T02:49:47;2.70;;;2.17;;
14768;SDS011;7476;49.404;11.152;2022-10-16T02:52:15;3.30;;;2.20;;
14768;SDS011;7476;49.404;11.152;2022-10-16T02:54:42;2.67;;;2.47;;
14768;SDS011;7476;49.404;11.152;2022-10-16T02:57:09;5.97;;;2.67;;
14768;SDS011;7476;49.404;11.152;2022-10-16T02:59:35;2.97;;;2.30;;
14768;SDS011;7476;49.404;11.152;2022-10-16T03:02:02;3.40;;;2.13;;
14768;SDS011;7476;49.404;11.152;2022-10-16T03:04:29;5.07;;;2.40;;
14768;SDS011;7476;49.404;11.152;2022-10-16T03:06:55;4.17;;;2.33;;
14768;SDS011;7476;49.404;11.152;2022-10-16T03:09:23;2.50;;;1.90;;
14768;SDS011;7476;49.404;11.152;2022-10-16T03:11:50;2.43;;;1.80;;
14768;SDS011;7476;49.404;11.152;2022-10-16T03:14:17;4.27;;;2.10;;
14768;SDS011;7476;49.404;11.152;2022-10-16T03:16:44;3.00;;;2.10;;
14768;SDS011;7476;49.404;11.152;2022-10-16T03:19:10;2.23;;;1.93;;
14768;SDS011;7476;49.404;11.152;2022-10-16T03:21:37;3.33;;;2.50;;
14768;SDS011;7476;49.404;11.152;2022-10-16T03:24:04;3.03;;;1.90;;
14768;SDS011;7476;49.404;11.152;2022-10-16T03:26:32;2.23;;;1.93;;
14768;SDS011;7476;49.404;11.152;2022-10-16T03:28:59;3.27;;;2.20;;
14768;SDS011;7476;49.404;11.152;2022-10-16T03:31:27;2.73;;;1.83;;
14768;SDS011;7476;49.404;11.152;2022-10-16T03:33:54;3.60;;;2.20;;
14768;SDS011;7476;49.404;11.152;2022-10-16T03:36:20;2.83;;;2.10;;
14768;SDS011;7476;49.404;11.152;2022-10-16T03:38:47;2.30;;;2.10;;
14768;SDS011;7476;49.404;11.152;2022-10-16T03:41:14;3.17;;;2.10;;
14768;SDS011;7476;49.404;11.152;2022-10-16T03:43:42;4.47;;;2.13;;
14768;SDS011;7476;49.404;11.152;2022-10-16T03:46:09;3.53;;;2.20;;
14768;SDS011;7476;49.404;11.152;2022-10-16T03:48:35;4.13;;;2.23;;
14768;SDS011;7476;49.404;11.152;2022-10-16T03:51:02;4.57;;;2.00;;
14768;SDS011;7476;49.404;11.152;2022-10-16T03:53:29;2.50;;;2.07;;
14768;SDS011;7476;49.404;11.152;2022-10-16T03:55:55;2.60;;;2.30;;
14768;SDS011;7476;49.404;11.152;2022-10-16T03:58:23;7.13;;;2.27;;
14768;SDS011;7476;49.404;11.152;2022-10-16T04:00:51;2.40;;;1.97;;
14768;SDS011;7476;49.404;11.152;2022-10-16T04:03:17;4.47;;;2.10;;
14768;SDS011;7476;49.404;11.152;2022-10-16T04:05:44;4.40;;;2.30;;
14768;SDS011;7476;49.404;11.152;2022-10-16T04:08:11;3.97;;;2.30;;
14768;SDS011;7476;49.404;11.152;2022-10-16T04:10:38;2.63;;;2.30;;
14768;SDS011;7476;49.404;11.152;2022-10-16T04:13:04;3.37;;;2.00;;
14768;SDS011;7476;49.404;11.152;2022-10-16T04:15:31;6.80;;;2.60;;
14768;SDS011;7476;49.404;11.152;2022-10-16T04:17:59;4.73;;;2.17;;
14768;SDS011;7476;49.404;11.152;2022-10-16T04:20:26;5.63;;;2.53;;
14768;SDS011;7476;49.404;11.152;2022-10-16T04:22:52;4.93;;;2.00;;
14768;SDS011;7476;49.404;11.152;2022-10-16T04:25:19;4.10;;;2.27;;
14768;SDS011;7476;49.404;11.152;2022-10-16T04:27:46;2.10;;;1.90;;
14768;SDS011;7476;49.404;11.152;2022-10-16T04:30:12;4.73;;;2.10;;
14768;SDS011;7476;49.404;11.152;2022-10-16T04:32:39;5.00;;;1.90;;
14768;SDS011;7476;49.404;11.152;2022-10-16T04:35:08;2.33;;;2.03;;
14768;SDS011;7476;49.404;11.152;2022-10-16T04:37:35;5.70;;;2.20;;
14768;SDS011;7476;49.404;11.152;2022-10-16T04:40:01;2.87;;;2.10;;
14768;SDS011;7476;49.404;11.152;2022-10-16T04:42:29;3.00;;;2.03;;
14768;SDS011;7476;49.404;11.152;2022-10-16T04:44:55;5.50;;;2.27;;
14768;SDS011;7476;49.404;11.152;2022-10-16T04:47:22;3.20;;;1.90;;
14768;SDS011;7476;49.404;11.152;2022-10-16T04:49:49;4.33;;;2.00;;
14768;SDS011;7476;49.404;11.152;2022-10-16T04:52:17;2.30;;;2.10;;
14768;SDS011;7476;49.404;11.152;2022-10-16T04:54:44;2.50;;;2.00;;
14768;SDS011;7476;49.404;11.152;2022-10-16T04:57:11;4.57;;;1.97;;
14768;SDS011;7476;49.404;11.152;2022-10-16T04:59:37;2.30;;;2.10;;
14768;SDS011;7476;49.404;11.152;2022-10-16T05:02:04;3.43;;;2.40;;
14768;SDS011;7476;49.404;11.152;2022-10-16T05:04:31;3.77;;;2.10;;
14768;SDS011;7476;49.404;11.152;2022-10-16T05:06:58;3.03;;;2.17;;
14768;SDS011;7476;49.404;11.152;2022-10-16T05:09:26;3.07;;;2.07;;
14768;SDS011;7476;49.404;11.152;2022-10-16T05:11:52;2.40;;;1.93;;
14768;SDS011;7476;49.404;11.152;2022-10-16T05:14:19;6.47;;;2.13;;
14768;SDS011;7476;49.404;11.152;2022-10-16T05:16:46;2.93;;;1.87;;
14768;SDS011;7476;49.404;11.152;2022-10-16T05:19:13;2.43;;;2.13;;
14768;SDS011;7476;49.404;11.152;2022-10-16T05:21:40;2.30;;;2.10;;
14768;SDS011;7476;49.404;11.152;2022-10-16T05:24:06;3.67;;;2.10;;
14768;SDS011;7476;49.404;11.152;2022-10-16T05:26:35;3.50;;;2.20;;
14768;SDS011;7476;49.404;11.152;2022-10-16T05:29:02;4.13;;;2.10;;
14768;SDS011;7476;49.404;11.152;2022-10-16T05:31:29;4.23;;;2.10;;
14768;SDS011;7476;49.404;11.152;2022-10-16T05:33:57;2.70;;;2.20;;
14768;SDS011;7476;49.404;11.152;2022-10-16T05:36:24;4.80;;;2.27;;
14768;SDS011;7476;49.404;11.152;2022-10-16T05:38:51;2.70;;;2.33;;
14768;SDS011;7476;49.404;11.152;2022-10-16T05:41:18;2.63;;;2.30;;
14768;SDS011;7476;49.404;11.152;2022-10-16T05:43:48;5.07;;;2.80;;
14768;SDS011;7476;49.404;11.152;2022-10-16T05:46:14;4.97;;;2.23;;
14768;SDS011;7476;49.404;11.152;2022-10-16T05:48:42;3.37;;;2.00;;
14768;SDS011;7476;49.404;11.152;2022-10-16T05:51:11;2.63;;;2.07;;
14768;SDS011;7476;49.404;11.152;2022-10-16T05:53:39;2.43;;;2.20;;
14768;SDS011;7476;49.404;11.152;2022-10-16T05:56:07;4.67;;;2.30;;
14768;SDS011;7476;49.404;11.152;2022-10-16T05:58:37;4.43;;;2.57;;
14768;SDS011;7476;49.404;11.152;2022-10-16T06:01:07;2.70;;;2.20;;
14768;SDS011;7476;49.404;11.152;2022-10-16T06:08:03;3.03;;;2.57;;
14768;SDS011;7476;49.404;11.152;2022-10-16T06:10:30;3.87;;;2.77;;
14768;SDS011;7476;49.404;11.152;2022-10-16T06:12:57;3.17;;;2.50;;
14768;SDS011;7476;49.404;11.152;2022-10-16T06:15:23;2.80;;;2.20;;
14768;SDS011;7476;49.404;11.152;2022-10-16T06:17:50;7.50;;;2.77;;
14768;SDS011;7476;49.404;11.152;2022-10-16T06:20:17;2.77;;;2.13;;
14768;SDS011;7476;49.404;11.152;2022-10-16T06:22:43;3.87;;;2.70;;
14768;SDS011;7476;49.404;11.152;2022-10-16T06:25:11;5.10;;;2.63;;
14768;SDS011;7476;49.404;11.152;2022-10-16T06:27:39;3.30;;;2.30;;
14768;SDS011;7476;49.404;11.152;2022-10-16T06:30:06;3.37;;;2.20;;
14768;SDS011;7476;49.404;11.152;2022-10-16T06:32:34;3.73;;;2.20;;
14768;SDS011;7476;49.404;11.152;2022-10-16T06:35:00;2.87;;;2.50;;
14768;SDS011;7476;49.404;11.152;2022-10-16T06:37:27;3.47;;;2.30;;
14768;SDS011;7476;49.404;11.152;2022-10-16T06:39:54;4.93;;;2.63;;
14768;SDS011;7476;49.404;11.152;2022-10-16T06:42:22;3.93;;;2.20;;
14768;SDS011;7476;49.404;11.152;2022-10-16T06:44:48;3.93;;;2.20;;
14768;SDS011;7476;49.404;11.152;2022-10-16T06:47:15;2.70;;;1.90;;
14768;SDS011;7476;49.404;11.152;2022-10-16T06:49:42;3.70;;;2.40;;
14768;SDS011;7476;49.404;11.152;2022-10-16T06:52:09;4.57;;;2.30;;
14768;SDS011;7476;49.404;11.152;2022-10-16T06:54:35;3.43;;;2.10;;
14768;SDS011;7476;49.404;11.152;2022-10-16T06:57:02;2.70;;;1.80;;
14768;SDS011;7476;49.404;11.152;2022-10-16T06:59:30;4.03;;;2.00;;
14768;SDS011;7476;49.404;11.152;2022-10-16T07:01:57;3.47;;;2.20;;
14768;SDS011;7476;49.404;11.152;2022-10-16T07:04:23;2.30;;;2.10;;
14768;SDS011;7476;49.404;11.152;2022-10-16T07:06:50;2.27;;;2.07;;
14768;SDS011;7476;49.404;11.152;2022-10-16T07:09:17;3.00;;;2.00;;
14768;SDS011;7476;49.404;11.152;2022-10-16T07:11:43;2.70;;;2.50;;
14768;SDS011;7476;49.404;11.152;2022-10-16T07:14:12;4.47;;;1.90;;
14768;SDS011;7476;49.404;11.152;2022-10-16T07:16:43;3.07;;;2.03;;
14768;SDS011;7476;49.404;11.152;2022-10-16T07:19:10;2.20;;;2.00;;
14768;SDS011;7476;49.404;11.152;2022-10-16T07:21:39;2.40;;;2.20;;
14768;SDS011;7476;49.404;11.152;2022-10-16T07:24:07;3.40;;;2.00;;
14768;SDS011;7476;49.404;11.152;2022-10-16T07:26:37;2.57;;;1.87;;
14768;SDS011;7476;49.404;11.152;2022-10-16T07:29:05;4.57;;;2.20;;
14768;SDS011;7476;49.404;11.152;2022-10-16T07:31:33;4.67;;;2.00;;
14768;SDS011;7476;49.404;11.152;2022-10-16T07:34:01;4.00;;;1.93;;
14768;SDS011;7476;49.404;11.152;2022-10-16T07:36:28;3.47;;;2.20;;
14768;SDS011;7476;49.404;11.152;2022-10-16T07:38:54;2.20;;;2.00;;
14768;SDS011;7476;49.404;11.152;2022-10-16T07:41:21;3.87;;;2.30;;
14768;SDS011;7476;49.404;11.152;2022-10-16T07:43:48;2.63;;;2.10;;
14768;SDS011;7476;49.404;11.152;2022-10-16T07:46:16;4.47;;;2.37;;
14768;SDS011;7476;49.404;11.152;2022-10-16T07:48:44;6.37;;;2.13;;
14768;SDS011;7476;49.404;11.152;2022-10-16T07:51:13;2.60;;;1.90;;
14768;SDS011;7476;49.404;11.152;2022-10-16T07:53:41;4.13;;;1.90;;
14768;SDS011;7476;49.404;11.152;2022-10-16T07:56:08;4.63;;;2.30;;
14768;SDS011;7476;49.404;11.152;2022-10-16T07:58:36;3.03;;;2.00;;
14768;SDS011;7476;49.404;11.152;2022-10-16T08:01:03;3.57;;;2.07;;
14768;SDS011;7476;49.404;11.152;2022-10-16T08:03:32;2.23;;;1.90;;
14768;SDS011;7476;49.404;11.152;2022-10-16T08:05:59;3.23;;;2.20;;
14768;SDS011;7476;49.404;11.152;2022-10-16T08:08:28;4.90;;;2.30;;
14768;SDS011;7476;49.404;11.152;2022-10-16T08:10:55;5.00;;;2.00;;
14768;SDS011;7476;49.404;11.152;2022-10-16T08:13:22;3.80;;;1.97;;
14768;SDS011;7476;49.404;11.152;2022-10-16T08:15:49;5.07;;;2.17;;
14768;SDS011;7476;49.404;11.152;2022-10-16T08:18:15;3.53;;;1.90;;
14768;SDS011;7476;49.404;11.152;2022-10-16T08:20:42;2.30;;;1.90;;
14768;SDS011;7476;49.404;11.152;2022-10-16T08:23:09;3.43;;;1.83;;
14768;SDS011;7476;49.404;11.152;2022-10-16T08:25:38;3.47;;;1.83;;
14768;SDS011;7476;49.404;11.152;2022-10-16T08:28:05;2.63;;;1.90;;
14768;SDS011;7476;49.404;11.152;2022-10-16T08:30:34;4.80;;;1.87;;
14768;SDS011;7476;49.404;11.152;2022-10-16T08:33:01;4.03;;;2.00;;
14768;SDS011;7476;49.404;11.152;2022-10-16T08:35:28;2.80;;;1.87;;
14768;SDS011;7476;49.404;11.152;2022-10-16T08:37:55;4.43;;;2.10;;
14768;SDS011;7476;49.404;11.152;2022-10-16T08:40:22;3.23;;;2.00;;
14768;SDS011;7476;49.404;11.152;2022-10-16T08:42:59;2.73;;;1.73;;
14768;SDS011;7476;49.404;11.152;2022-10-16T08:45:49;4.77;;;2.10;;
14768;SDS011;7476;49.404;11.152;2022-10-16T08:48:30;4.70;;;1.77;;
14768;SDS011;7476;49.404;11.152;2022-10-16T08:51:06;3.70;;;2.00;;
14768;SDS011;7476;49.404;11.152;2022-10-16T08:53:36;2.20;;;1.87;;
14768;SDS011;7476;49.404;11.152;2022-10-16T08:56:08;1.67;;;1.57;;
14768;SDS011;7476;49.404;11.152;2022-10-16T08:58:37;2.87;;;1.90;;
14768;SDS011;7476;49.404;11.152;2022-10-16T09:01:04;2.77;;;1.80;;
14768;SDS011;7476;49.404;11.152;2022-10-16T09:06:43;2.63;;;1.90;;
14768;SDS011;7476;49.404;11.152;2022-10-16T09:09:20;2.70;;;1.87;;
14768;SDS011;7476;49.404;11.152;2022-10-16T09:12:10;3.37;;;1.73;;
14768;SDS011;7476;49.404;11.152;2022-10-16T09:14:49;1.80;;;1.50;;
14768;SDS011;7476;49.404;11.152;2022-10-16T09:17:27;7.37;;;2.00;;
14768;SDS011;7476;49.404;11.152;2022-10-16T09:20:03;4.37;;;1.93;;
14768;SDS011;7476;49.404;11.152;2022-10-16T09:22:39;2.30;;;1.80;;
14768;SDS011;7476;49.404;11.152;2022-10-16T09:25:10;3.17;;;1.80;;
14768;SDS011;7476;49.404;11.152;2022-10-16T09:27:39;3.63;;;1.67;;
14768;SDS011;7476;49.404;11.152;2022-10-16T09:30:12;3.03;;;2.00;;
14768;SDS011;7476;49.404;11.152;2022-10-16T09:32:39;4.20;;;1.80;;
14768;SDS011;7476;49.404;11.152;2022-10-16T09:35:10;2.60;;;1.70;;
14768;SDS011;7476;49.404;11.152;2022-10-16T09:37:40;2.90;;;1.80;;
14768;SDS011;7476;49.404;11.152;2022-10-16T09:40:11;3.03;;;1.57;;
14768;SDS011;7476;49.404;11.152;2022-10-16T09:42:39;2.13;;;1.60;;
14768;SDS011;7476;49.404;11.152;2022-10-16T09:45:20;2.10;;;1.77;;
14768;SDS011;7476;49.404;11.152;2022-10-16T09:47:48;4.13;;;1.83;;
14768;SDS011;7476;49.404;11.152;2022-10-16T09:50:20;3.63;;;1.80;;
14768;SDS011;7476;49.404;11.152;2022-10-16T09:52:49;5.47;;;2.30;;
14768;SDS011;7476;49.404;11.152;2022-10-16T09:55:17;2.50;;;2.00;;
14768;SDS011;7476;49.404;11.152;2022-10-16T09:57:50;3.40;;;1.80;;
14768;SDS011;7476;49.404;11.152;2022-10-16T10:00:17;3.00;;;1.80;;
14768;SDS011;7476;49.404;11.152;2022-10-16T10:02:45;3.17;;;1.70;;
14768;SDS011;7476;49.404;11.152;2022-10-16T10:05:19;2.07;;;1.87;;
14768;SDS011;7476;49.404;11.152;2022-10-16T10:07:53;2.73;;;1.80;;
14768;SDS011;7476;49.404;11.152;2022-10-16T10:10:23;3.90;;;1.83;;
14768;SDS011;7476;49.404;11.152;2022-10-16T10:12:52;2.10;;;1.50;;
14768;SDS011;7476;49.404;11.152;2022-10-16T10:15:20;3.97;;;2.10;;
14768;SDS011;7476;49.404;11.152;2022-10-16T10:17:50;2.87;;;1.90;;
14768;SDS011;7476;49.404;11.152;2022-10-16T10:20:22;2.50;;;1.77;;
14768;SDS011;7476;49.404;11.152;2022-10-16T10:22:50;1.93;;;1.70;;
14768;SDS011;7476;49.404;11.152;2022-10-16T10:31:11;3.60;;;1.80;;
14768;SDS011;7476;49.404;11.152;2022-10-16T10:33:43;2.63;;;1.80;;
14768;SDS011;7476;49.404;11.152;2022-10-16T10:36:16;2.70;;;1.80;;
14768;SDS011;7476;49.404;11.152;2022-10-16T10:38:53;4.10;;;1.60;;
14768;SDS011;7476;49.404;11.152;2022-10-16T10:41:36;2.57;;;2.00;;
14768;SDS011;7476;49.404;11.152;2022-10-16T10:44:24;2.97;;;1.80;;
14768;SDS011;7476;49.404;11.152;2022-10-16T10:47:01;3.37;;;1.87;;
14768;SDS011;7476;49.404;11.152;2022-10-16T10:49:43;3.93;;;1.80;;
14768;SDS011;7476;49.404;11.152;2022-10-16T10:52:24;3.10;;;1.70;;
14768;SDS011;7476;49.404;11.152;2022-10-16T10:55:20;6.47;;;2.10;;
14768;SDS011;7476;49.404;11.152;2022-10-16T10:57:56;4.60;;;1.93;;
14768;SDS011;7476;49.404;11.152;2022-10-16T11:00:42;2.83;;;2.10;;
14768;SDS011;7476;49.404;11.152;2022-10-16T11:03:22;1.90;;;1.60;;
14768;SDS011;7476;49.404;11.152;2022-10-16T11:05:59;3.87;;;1.70;;
14768;SDS011;7476;49.404;11.152;2022-10-16T11:08:31;2.17;;;1.97;;
14768;SDS011;7476;49.404;11.152;2022-10-16T11:11:02;1.60;;;1.50;;
14768;SDS011;7476;49.404;11.152;2022-10-16T11:13:32;4.03;;;2.70;;
14768;SDS011;7476;49.404;11.152;2022-10-16T11:16:06;4.53;;;2.00;;
14768;SDS011;7476;49.404;11.152;2022-10-16T11:18:43;1.97;;;1.70;;
14768;SDS011;7476;49.404;11.152;2022-10-16T11:21:17;2.87;;;2.17;;
14768;SDS011;7476;49.404;11.152;2022-10-16T11:23:47;2.07;;;1.70;;
14768;SDS011;7476;49.404;11.152;2022-10-16T11:26:20;2.60;;;1.70;;
14768;SDS011;7476;49.404;11.152;2022-10-16T11:28:50;2.00;;;1.80;;
14768;SDS011;7476;49.404;11.152;2022-10-16T11:31:25;4.10;;;1.70;;
14768;SDS011;7476;49.404;11.152;2022-10-16T11:33:59;2.53;;;1.70;;
14768;SDS011;7476;49.404;11.152;2022-10-16T11:36:33;2.77;;;1.83;;
14768;SDS011;7476;49.404;11.152;2022-10-16T11:39:08;3.23;;;1.97;;
14768;SDS011;7476;49.404;11.152;2022-10-16T11:41:47;3.77;;;1.93;;
14768;SDS011;7476;49.404;11.152;2022-10-16T11:44:37;2.43;;;1.67;;
14768;SDS011;7476;49.404;11.152;2022-10-16T11:47:15;3.30;;;2.00;;
14768;SDS011;7476;49.404;11.152;2022-10-16T11:49:51;4.17;;;1.80;;
14768;SDS011;7476;49.404;11.152;2022-10-16T11:52:24;3.13;;;1.80;;
14768;SDS011;7476;49.404;11.152;2022-10-16T11:54:56;7.37;;;2.00;;
14768;SDS011;7476;49.404;11.152;2022-10-16T11:57:31;4.43;;;2.00;;
14768;SDS011;7476;49.404;11.152;2022-10-16T12:00:04;2.53;;;1.80;;
14768;SDS011;7476;49.404;11.152;2022-10-16T12:02:39;3.63;;;1.90;;
14768;SDS011;7476;49.404;11.152;2022-10-16T12:05:18;3.50;;;1.83;;
14768;SDS011;7476;49.404;11.152;2022-10-16T12:07:55;2.80;;;1.70;;
14768;SDS011;7476;49.404;11.152;2022-10-16T12:10:30;3.07;;;1.83;;
14768;SDS011;7476;49.404;11.152;2022-10-16T12:13:02;2.53;;;1.70;;
14768;SDS011;7476;49.404;11.152;2022-10-16T12:15:29;3.07;;;1.70;;
14768;SDS011;7476;49.404;11.152;2022-10-16T12:17:57;1.97;;;1.73;;
14768;SDS011;7476;49.404;11.152;2022-10-16T12:20:26;3.37;;;1.63;;
14768;SDS011;7476;49.404;11.152;2022-10-16T12:22:57;4.90;;;1.73;;
14768;SDS011;7476;49.404;11.152;2022-10-16T12:25:26;2.97;;;1.70;;
14768;SDS011;7476;49.404;11.152;2022-10-16T12:27:55;2.15;;;1.85;;
14768;SDS011;7476;49.404;11.152;2022-10-16T12:30:31;3.53;;;1.60;;
14768;SDS011;7476;49.404;11.152;2022-10-16T12:33:00;1.70;;;1.50;;
14768;SDS011;7476;49.404;11.152;2022-10-16T12:35:30;3.30;;;1.67;;
14768;SDS011;7476;49.404;11.152;2022-10-16T12:38:07;2.17;;;1.48;;
14768;SDS011;7476;49.404;11.152;2022-10-16T12:40:43;2.75;;;1.80;;
14768;SDS011;7476;49.404;11.152;2022-10-16T12:43:13;6.27;;;1.90;;
14768;SDS011;7476;49.404;11.152;2022-10-16T12:46:02;2.87;;;1.87;;
14768;SDS011;7476;49.404;11.152;2022-10-16T12:48:31;1.97;;;1.67;;
14768;SDS011;7476;49.404;11.152;2022-10-16T12:51:09;3.80;;;1.77;;
14768;SDS011;7476;49.404;11.152;2022-10-16T12:53:38;2.03;;;1.63;;
14768;SDS011;7476;49.404;11.152;2022-10-16T12:56:11;3.77;;;1.63;;
14768;SDS011;7476;49.404;11.152;2022-10-16T12:58:52;2.00;;;1.80;;
14768;SDS011;7476;49.404;11.152;2022-10-16T13:01:34;3.47;;;1.47;;
14768;SDS011;7476;49.404;11.152;2022-10-16T13:04:13;4.20;;;1.77;;
14768;SDS011;7476;49.404;11.152;2022-10-16T13:06:55;3.13;;;1.60;;
14768;SDS011;7476;49.404;11.152;2022-10-16T13:09:36;4.00;;;1.90;;
14768;SDS011;7476;49.404;11.152;2022-10-16T13:12:22;2.93;;;1.57;;
14768;SDS011;7476;49.404;11.152;2022-10-16T13:15:15;2.50;;;1.50;;
14768;SDS011;7476;49.404;11.152;2022-10-16T13:17:49;2.27;;;1.50;;
14768;SDS011;7476;49.404;11.152;2022-10-16T13:20:24;2.17;;;1.50;;
14768;SDS011;7476;49.404;11.152;2022-10-16T13:22:59;1.63;;;1.53;;
14768;SDS011;7476;49.404;11.152;2022-10-16T13:25:38;2.27;;;1.70;;
14768;SDS011;7476;49.404;11.152;2022-10-16T13:28:13;2.10;;;1.50;;
14768;SDS011;7476;49.404;11.152;2022-10-16T13:30:51;2.40;;;2.17;;
14768;SDS011;7476;49.404;11.152;2022-10-16T13:33:20;2.27;;;1.90;;
14768;SDS011;7476;49.404;11.152;2022-10-16T13:35:53;1.60;;;1.50;;
14768;SDS011;7476;49.404;11.152;2022-10-16T13:38:22;2.63;;;1.50;;
14768;SDS011;7476;49.404;11.152;2022-10-16T13:40:53;2.77;;;1.60;;
14768;SDS011;7476;49.404;11.152;2022-10-16T13:43:22;1.98;;;1.63;;
14768;SDS011;7476;49.404;11.152;2022-10-16T13:45:58;5.75;;;1.67;;
14768;SDS011;7476;49.404;11.152;2022-10-16T13:48:27;3.95;;;1.45;;
14768;SDS011;7476;49.404;11.152;2022-10-16T13:51:01;1.77;;;1.60;;
14768;SDS011;7476;49.404;11.152;2022-10-16T13:53:32;2.95;;;1.63;;
14768;SDS011;7476;49.404;11.152;2022-10-16T13:56:03;3.58;;;1.60;;
14768;SDS011;7476;49.404;11.152;2022-10-16T13:58:31;3.17;;;2.00;;
14768;SDS011;7476;49.404;11.152;2022-10-16T14:00:59;2.60;;;1.60;;
14768;SDS011;7476;49.404;11.152;2022-10-16T14:03:27;2.85;;;1.70;;
14768;SDS011;7476;49.404;11.152;2022-10-16T14:05:56;3.88;;;1.38;;
14768;SDS011;7476;49.404;11.152;2022-10-16T14:08:24;3.05;;;1.50;;
14768;SDS011;7476;49.404;11.152;2022-10-16T14:10:53;1.45;;;1.30;;
14768;SDS011;7476;49.404;11.152;2022-10-16T14:13:26;2.00;;;1.23;;
14768;SDS011;7476;49.404;11.152;2022-10-16T14:15:56;1.73;;;1.48;;
14768;SDS011;7476;49.404;11.152;2022-10-16T14:18:26;3.33;;;1.40;;
14768;SDS011;7476;49.404;11.152;2022-10-16T14:20:54;2.45;;;1.70;;
14768;SDS011;7476;49.404;11.152;2022-10-16T14:23:29;2.65;;;1.40;;
14768;SDS011;7476;49.404;11.152;2022-10-16T14:26:05;3.53;;;1.70;;
14768;SDS011;7476;49.404;11.152;2022-10-16T14:28:40;1.98;;;1.63;;
14768;SDS011;7476;49.404;11.152;2022-10-16T14:31:20;2.38;;;1.42;;
14768;SDS011;7476;49.404;11.152;2022-10-16T14:33:52;1.85;;;1.70;;
14768;SDS011;7476;49.404;11.152;2022-10-16T14:36:19;3.67;;;1.63;;
14768;SDS011;7476;49.404;11.152;2022-10-16T14:38:48;3.13;;;1.70;;
14768;SDS011;7476;49.404;11.152;2022-10-16T14:41:19;2.10;;;1.40;;
14768;SDS011;7476;49.404;11.152;2022-10-16T14:43:49;1.77;;;1.42;;
14768;SDS011;7476;49.404;11.152;2022-10-16T14:46:20;3.53;;;1.70;;
14768;SDS011;7476;49.404;11.152;2022-10-16T14:48:51;2.60;;;1.55;;
14768;SDS011;7476;49.404;11.152;2022-10-16T14:51:22;3.10;;;1.47;;
14768;SDS011;7476;49.404;11.152;2022-10-16T14:53:49;4.10;;;1.70;;
14768;SDS011;7476;49.404;11.152;2022-10-16T14:56:17;1.90;;;1.30;;
14768;SDS011;7476;49.404;11.152;2022-10-16T14:58:46;1.80;;;1.60;;
14768;SDS011;7476;49.404;11.152;2022-10-16T15:01:14;2.30;;;1.60;;
14768;SDS011;7476;49.404;11.152;2022-10-16T15:03:41;2.97;;;1.60;;
14768;SDS011;7476;49.404;11.152;2022-10-16T15:06:09;2.13;;;1.60;;
14768;SDS011;7476;49.404;11.152;2022-10-16T15:08:36;3.50;;;1.63;;
14768;SDS011;7476;49.404;11.152;2022-10-16T15:11:04;5.90;;;1.80;;
14768;SDS011;7476;49.404;11.152;2022-10-16T15:13:31;3.53;;;1.60;;
14768;SDS011;7476;49.404;11.152;2022-10-16T15:15:58;1.87;;;1.70;;
14768;SDS011;7476;49.404;11.152;2022-10-16T15:18:26;3.70;;;1.80;;
14768;SDS011;7476;49.404;11.152;2022-10-16T15:20:53;5.03;;;1.70;;
14768;SDS011;7476;49.404;11.152;2022-10-16T15:23:21;2.13;;;1.80;;